sensor_id;sensor_type;location;lat;lon;timestamp;P1;durP1;ratioP1;P2;durP2;ratioP2
7813;SDS011;3952;48.364;16.022;2023-07-13T00:00:37;2.40;;;2.27;;
7813;SDS011;3952;48.364;16.022;2023-07-13T00:03:04;3.87;;;2.47;;
7813;SDS011;3952;48.364;16.022;2023-07-13T00:05:31;2.33;;;2.20;;
7813;SDS011;3952;48.364;16.022;2023-07-13T00:07:58;2.43;;;2.23;;
7813;SDS011;3952;48.364;16.022;2023-07-13T00:10:26;3.00;;;2.80;;
7813;SDS011;3952;48.364;16.022;2023-07-13T00:12:54;2.47;;;2.37;;
7813;SDS011;3952;48.364;16.022;2023-07-13T00:15:24;2.83;;;2.60;;
7813;SDS011;3952;48.364;16.022;2023-07-13T00:17:53;4.50;;;2.33;;
7813;SDS011;3952;48.364;16.022;2023-07-13T00:20:21;2.33;;;2.20;;
7813;SDS011;3952;48.364;16.022;2023-07-13T00:22:50;2.47;;;2.30;;
7813;SDS011;3952;48.364;16.022;2023-07-13T00:25:19;4.03;;;2.40;;
7813;SDS011;3952;48.364;16.022;2023-07-13T00:27:47;3.53;;;2.80;;
7813;SDS011;3952;48.364;16.022;2023-07-13T00:30:14;5.53;;;2.60;;
7813;SDS011;3952;48.364;16.022;2023-07-13T00:32:43;3.73;;;2.83;;
7813;SDS011;3952;48.364;16.022;2023-07-13T00:35:12;2.93;;;2.40;;
7813;SDS011;3952;48.364;16.022;2023-07-13T00:37:40;3.00;;;2.70;;
7813;SDS011;3952;48.364;16.022;2023-07-13T00:40:09;2.50;;;2.30;;
7813;SDS011;3952;48.364;16.022;2023-07-13T00:42:38;2.77;;;2.57;;
7813;SDS011;3952;48.364;16.022;2023-07-13T00:45:06;3.70;;;2.77;;
7813;SDS011;3952;48.364;16.022;2023-07-13T00:47:50;2.73;;;2.30;;
7813;SDS011;3952;48.364;16.022;2023-07-13T00:50:17;2.60;;;2.40;;
7813;SDS011;3952;48.364;16.022;2023-07-13T00:52:50;4.33;;;2.40;;
7813;SDS011;3952;48.364;16.022;2023-07-13T00:55:23;2.90;;;2.17;;
7813;SDS011;3952;48.364;16.022;2023-07-13T00:57:50;2.33;;;2.00;;
7813;SDS011;3952;48.364;16.022;2023-07-13T01:00:17;2.40;;;2.30;;
7813;SDS011;3952;48.364;16.022;2023-07-13T01:02:46;3.57;;;1.90;;
7813;SDS011;3952;48.364;16.022;2023-07-13T01:05:18;1.73;;;1.70;;
7813;SDS011;3952;48.364;16.022;2023-07-13T01:07:48;2.40;;;1.70;;
7813;SDS011;3952;48.364;16.022;2023-07-13T01:10:35;1.53;;;1.53;;
7813;SDS011;3952;48.364;16.022;2023-07-13T01:13:05;2.50;;;1.80;;
7813;SDS011;3952;48.364;16.022;2023-07-13T01:15:38;2.07;;;1.70;;
7813;SDS011;3952;48.364;16.022;2023-07-13T01:18:07;1.70;;;1.60;;
7813;SDS011;3952;48.364;16.022;2023-07-13T01:20:37;2.70;;;1.70;;
7813;SDS011;3952;48.364;16.022;2023-07-13T01:23:07;1.97;;;1.60;;
7813;SDS011;3952;48.364;16.022;2023-07-13T01:25:36;2.20;;;1.60;;
7813;SDS011;3952;48.364;16.022;2023-07-13T01:28:04;1.80;;;1.70;;
7813;SDS011;3952;48.364;16.022;2023-07-13T01:30:33;2.70;;;1.67;;
7813;SDS011;3952;48.364;16.022;2023-07-13T01:33:01;2.20;;;1.60;;
7813;SDS011;3952;48.364;16.022;2023-07-13T01:35:29;1.70;;;1.60;;
7813;SDS011;3952;48.364;16.022;2023-07-13T01:37:56;3.30;;;1.73;;
7813;SDS011;3952;48.364;16.022;2023-07-13T01:40:26;2.03;;;1.93;;
7813;SDS011;3952;48.364;16.022;2023-07-13T01:42:54;1.93;;;1.83;;
7813;SDS011;3952;48.364;16.022;2023-07-13T01:45:21;4.00;;;1.73;;
7813;SDS011;3952;48.364;16.022;2023-07-13T01:47:49;1.93;;;1.70;;
7813;SDS011;3952;48.364;16.022;2023-07-13T01:50:16;2.13;;;1.87;;
7813;SDS011;3952;48.364;16.022;2023-07-13T01:52:43;4.23;;;1.90;;
7813;SDS011;3952;48.364;16.022;2023-07-13T01:55:10;1.83;;;1.73;;
7813;SDS011;3952;48.364;16.022;2023-07-13T01:57:40;2.30;;;2.20;;
7813;SDS011;3952;48.364;16.022;2023-07-13T02:00:08;2.00;;;1.90;;
7813;SDS011;3952;48.364;16.022;2023-07-13T02:02:36;2.10;;;2.00;;
7813;SDS011;3952;48.364;16.022;2023-07-13T02:05:04;2.67;;;2.43;;
7813;SDS011;3952;48.364;16.022;2023-07-13T02:07:32;2.03;;;1.93;;
7813;SDS011;3952;48.364;16.022;2023-07-13T02:09:59;3.23;;;2.00;;
7813;SDS011;3952;48.364;16.022;2023-07-13T02:12:26;1.67;;;1.57;;
7813;SDS011;3952;48.364;16.022;2023-07-13T02:18:02;2.10;;;1.60;;
7813;SDS011;3952;48.364;16.022;2023-07-13T02:20:29;1.90;;;1.80;;
7813;SDS011;3952;48.364;16.022;2023-07-13T02:22:56;5.67;;;1.90;;
7813;SDS011;3952;48.364;16.022;2023-07-13T02:25:24;1.70;;;1.60;;
7813;SDS011;3952;48.364;16.022;2023-07-13T02:27:52;1.67;;;1.57;;
7813;SDS011;3952;48.364;16.022;2023-07-13T02:30:19;3.07;;;2.10;;
7813;SDS011;3952;48.364;16.022;2023-07-13T02:32:48;2.20;;;2.00;;
7813;SDS011;3952;48.364;16.022;2023-07-13T02:35:16;2.20;;;2.10;;
7813;SDS011;3952;48.364;16.022;2023-07-13T02:37:43;2.37;;;2.20;;
7813;SDS011;3952;48.364;16.022;2023-07-13T02:40:10;2.50;;;2.30;;
7813;SDS011;3952;48.364;16.022;2023-07-13T02:42:38;2.40;;;2.20;;
7813;SDS011;3952;48.364;16.022;2023-07-13T02:45:06;2.20;;;2.00;;
7813;SDS011;3952;48.364;16.022;2023-07-13T02:47:35;3.40;;;2.50;;
7813;SDS011;3952;48.364;16.022;2023-07-13T02:50:02;3.60;;;2.53;;
7813;SDS011;3952;48.364;16.022;2023-07-13T02:52:31;2.90;;;2.37;;
7813;SDS011;3952;48.364;16.022;2023-07-13T02:54:58;2.17;;;2.00;;
7813;SDS011;3952;48.364;16.022;2023-07-13T02:57:26;2.40;;;2.30;;
7813;SDS011;3952;48.364;16.022;2023-07-13T02:59:53;2.27;;;2.13;;
7813;SDS011;3952;48.364;16.022;2023-07-13T03:02:21;2.53;;;2.40;;
7813;SDS011;3952;48.364;16.022;2023-07-13T03:04:48;4.93;;;2.10;;
7813;SDS011;3952;48.364;16.022;2023-07-13T03:07:15;3.33;;;2.30;;
7813;SDS011;3952;48.364;16.022;2023-07-13T03:09:44;2.63;;;2.43;;
7813;SDS011;3952;48.364;16.022;2023-07-13T03:12:11;2.83;;;2.10;;
7813;SDS011;3952;48.364;16.022;2023-07-13T03:14:38;2.90;;;2.33;;
7813;SDS011;3952;48.364;16.022;2023-07-13T03:17:05;2.63;;;2.40;;
7813;SDS011;3952;48.364;16.022;2023-07-13T03:19:32;2.70;;;2.50;;
7813;SDS011;3952;48.364;16.022;2023-07-13T03:22:00;6.90;;;2.73;;
7813;SDS011;3952;48.364;16.022;2023-07-13T03:24:27;4.40;;;2.30;;
7813;SDS011;3952;48.364;16.022;2023-07-13T03:26:55;3.77;;;2.70;;
7813;SDS011;3952;48.364;16.022;2023-07-13T03:29:23;2.30;;;2.10;;
7813;SDS011;3952;48.364;16.022;2023-07-13T03:31:50;2.60;;;2.50;;
7813;SDS011;3952;48.364;16.022;2023-07-13T03:34:17;5.23;;;2.87;;
7813;SDS011;3952;48.364;16.022;2023-07-13T03:36:44;2.70;;;2.50;;
7813;SDS011;3952;48.364;16.022;2023-07-13T03:39:11;3.77;;;2.90;;
7813;SDS011;3952;48.364;16.022;2023-07-13T03:41:39;2.97;;;2.77;;
7813;SDS011;3952;48.364;16.022;2023-07-13T03:44:07;3.40;;;2.80;;
7813;SDS011;3952;48.364;16.022;2023-07-13T03:46:34;4.57;;;2.83;;
7813;SDS011;3952;48.364;16.022;2023-07-13T03:49:04;2.87;;;2.77;;
7813;SDS011;3952;48.364;16.022;2023-07-13T03:51:32;2.83;;;2.63;;
7813;SDS011;3952;48.364;16.022;2023-07-13T03:53:59;11.80;;;3.00;;
7813;SDS011;3952;48.364;16.022;2023-07-13T03:56:28;3.00;;;2.70;;
7813;SDS011;3952;48.364;16.022;2023-07-13T03:58:55;3.13;;;2.93;;
7813;SDS011;3952;48.364;16.022;2023-07-13T04:01:25;4.37;;;2.90;;
7813;SDS011;3952;48.364;16.022;2023-07-13T04:03:52;3.93;;;2.93;;
7813;SDS011;3952;48.364;16.022;2023-07-13T04:06:20;2.60;;;2.50;;
7813;SDS011;3952;48.364;16.022;2023-07-13T04:08:50;2.83;;;2.67;;
7813;SDS011;3952;48.364;16.022;2023-07-13T04:11:18;3.10;;;2.90;;
7813;SDS011;3952;48.364;16.022;2023-07-13T04:13:47;2.70;;;2.50;;
7813;SDS011;3952;48.364;16.022;2023-07-13T04:16:14;2.67;;;2.57;;
7813;SDS011;3952;48.364;16.022;2023-07-13T04:18:44;3.00;;;2.70;;
7813;SDS011;3952;48.364;16.022;2023-07-13T04:21:12;2.97;;;2.77;;
7813;SDS011;3952;48.364;16.022;2023-07-13T04:23:39;2.80;;;2.70;;
7813;SDS011;3952;48.364;16.022;2023-07-13T04:26:07;5.00;;;2.63;;
7813;SDS011;3952;48.364;16.022;2023-07-13T04:28:34;2.93;;;2.73;;
7813;SDS011;3952;48.364;16.022;2023-07-13T04:31:01;2.83;;;2.63;;
7813;SDS011;3952;48.364;16.022;2023-07-13T04:33:28;3.33;;;2.90;;
7813;SDS011;3952;48.364;16.022;2023-07-13T04:35:57;2.73;;;2.63;;
7813;SDS011;3952;48.364;16.022;2023-07-13T04:38:25;4.53;;;2.60;;
7813;SDS011;3952;48.364;16.022;2023-07-13T04:40:54;3.03;;;2.60;;
7813;SDS011;3952;48.364;16.022;2023-07-13T04:43:22;2.60;;;2.50;;
7813;SDS011;3952;48.364;16.022;2023-07-13T04:45:50;4.23;;;2.60;;
7813;SDS011;3952;48.364;16.022;2023-07-13T04:48:17;2.80;;;2.57;;
7813;SDS011;3952;48.364;16.022;2023-07-13T04:50:45;2.63;;;2.43;;
7813;SDS011;3952;48.364;16.022;2023-07-13T04:53:14;2.60;;;2.50;;
7813;SDS011;3952;48.364;16.022;2023-07-13T04:55:41;2.47;;;2.27;;
7813;SDS011;3952;48.364;16.022;2023-07-13T04:58:08;3.13;;;2.90;;
7813;SDS011;3952;48.364;16.022;2023-07-13T05:00:36;3.40;;;2.73;;
7813;SDS011;3952;48.364;16.022;2023-07-13T05:03:03;3.00;;;2.63;;
7813;SDS011;3952;48.364;16.022;2023-07-13T05:05:31;2.97;;;2.60;;
7813;SDS011;3952;48.364;16.022;2023-07-13T05:07:59;3.67;;;3.07;;
7813;SDS011;3952;48.364;16.022;2023-07-13T05:10:27;4.50;;;3.13;;
7813;SDS011;3952;48.364;16.022;2023-07-13T05:12:55;5.97;;;3.20;;
7813;SDS011;3952;48.364;16.022;2023-07-13T05:15:22;6.70;;;3.53;;
7813;SDS011;3952;48.364;16.022;2023-07-13T05:17:50;3.13;;;2.87;;
7813;SDS011;3952;48.364;16.022;2023-07-13T05:20:18;3.40;;;3.00;;
7813;SDS011;3952;48.364;16.022;2023-07-13T05:22:45;4.80;;;3.40;;
7813;SDS011;3952;48.364;16.022;2023-07-13T05:25:13;3.50;;;3.10;;
7813;SDS011;3952;48.364;16.022;2023-07-13T05:27:42;5.20;;;3.53;;
7813;SDS011;3952;48.364;16.022;2023-07-13T05:30:11;4.83;;;3.40;;
7813;SDS011;3952;48.364;16.022;2023-07-13T05:32:38;3.93;;;3.63;;
7813;SDS011;3952;48.364;16.022;2023-07-13T05:35:06;4.73;;;3.30;;
7813;SDS011;3952;48.364;16.022;2023-07-13T05:37:34;3.70;;;3.40;;
7813;SDS011;3952;48.364;16.022;2023-07-13T05:40:01;4.87;;;3.13;;
7813;SDS011;3952;48.364;16.022;2023-07-13T05:42:29;7.87;;;3.50;;
7813;SDS011;3952;48.364;16.022;2023-07-13T05:44:58;3.93;;;3.10;;
7813;SDS011;3952;48.364;16.022;2023-07-13T05:47:25;4.63;;;2.83;;
7813;SDS011;3952;48.364;16.022;2023-07-13T05:49:53;4.87;;;2.90;;
7813;SDS011;3952;48.364;16.022;2023-07-13T05:52:20;3.33;;;2.73;;
7813;SDS011;3952;48.364;16.022;2023-07-13T05:54:47;3.10;;;2.80;;
7813;SDS011;3952;48.364;16.022;2023-07-13T05:57:14;3.67;;;3.40;;
7813;SDS011;3952;48.364;16.022;2023-07-13T05:59:42;3.43;;;3.13;;
7813;SDS011;3952;48.364;16.022;2023-07-13T06:02:10;5.27;;;2.80;;
7813;SDS011;3952;48.364;16.022;2023-07-13T06:04:37;3.47;;;3.20;;
7813;SDS011;3952;48.364;16.022;2023-07-13T06:07:05;4.33;;;2.73;;
7813;SDS011;3952;48.364;16.022;2023-07-13T06:09:32;3.20;;;3.00;;
7813;SDS011;3952;48.364;16.022;2023-07-13T06:11:59;4.27;;;2.67;;
7813;SDS011;3952;48.364;16.022;2023-07-13T06:14:26;4.67;;;2.63;;
7813;SDS011;3952;48.364;16.022;2023-07-13T06:16:53;2.67;;;2.47;;
7813;SDS011;3952;48.364;16.022;2023-07-13T06:19:22;3.10;;;2.90;;
7813;SDS011;3952;48.364;16.022;2023-07-13T06:21:49;2.83;;;2.63;;
7813;SDS011;3952;48.364;16.022;2023-07-13T06:24:16;2.53;;;2.33;;
7813;SDS011;3952;48.364;16.022;2023-07-13T06:26:43;3.13;;;2.90;;
7813;SDS011;3952;48.364;16.022;2023-07-13T06:29:10;3.60;;;2.80;;
7813;SDS011;3952;48.364;16.022;2023-07-13T06:31:37;2.67;;;2.47;;
7813;SDS011;3952;48.364;16.022;2023-07-13T06:34:04;4.40;;;2.73;;
7813;SDS011;3952;48.364;16.022;2023-07-13T06:36:33;5.47;;;2.60;;
7813;SDS011;3952;48.364;16.022;2023-07-13T06:39:01;3.23;;;2.60;;
7813;SDS011;3952;48.364;16.022;2023-07-13T06:41:28;2.93;;;2.73;;
7813;SDS011;3952;48.364;16.022;2023-07-13T06:43:56;2.70;;;2.50;;
7813;SDS011;3952;48.364;16.022;2023-07-13T06:46:23;2.67;;;2.57;;
7813;SDS011;3952;48.364;16.022;2023-07-13T06:48:50;3.23;;;2.50;;
7813;SDS011;3952;48.364;16.022;2023-07-13T06:51:17;3.70;;;2.50;;
7813;SDS011;3952;48.364;16.022;2023-07-13T06:53:46;2.50;;;2.30;;
7813;SDS011;3952;48.364;16.022;2023-07-13T06:56:13;2.60;;;2.50;;
7813;SDS011;3952;48.364;16.022;2023-07-13T06:58:40;2.40;;;2.20;;
7813;SDS011;3952;48.364;16.022;2023-07-13T07:01:07;3.50;;;2.20;;
7813;SDS011;3952;48.364;16.022;2023-07-13T07:03:35;2.80;;;2.60;;
7813;SDS011;3952;48.364;16.022;2023-07-13T07:06:11;2.63;;;2.43;;
7813;SDS011;3952;48.364;16.022;2023-07-13T07:08:43;2.53;;;2.30;;
7813;SDS011;3952;48.364;16.022;2023-07-13T07:11:13;2.43;;;2.30;;
7813;SDS011;3952;48.364;16.022;2023-07-13T07:13:43;2.50;;;2.40;;
7813;SDS011;3952;48.364;16.022;2023-07-13T07:16:11;2.50;;;2.40;;
7813;SDS011;3952;48.364;16.022;2023-07-13T07:18:38;2.10;;;2.00;;
7813;SDS011;3952;48.364;16.022;2023-07-13T07:21:05;3.57;;;2.30;;
7813;SDS011;3952;48.364;16.022;2023-07-13T07:23:32;2.10;;;2.00;;
7813;SDS011;3952;48.364;16.022;2023-07-13T07:26:01;2.23;;;2.07;;
7813;SDS011;3952;48.364;16.022;2023-07-13T07:28:28;2.20;;;2.10;;
7813;SDS011;3952;48.364;16.022;2023-07-13T07:30:56;2.37;;;2.17;;
7813;SDS011;3952;48.364;16.022;2023-07-13T07:33:24;1.83;;;1.73;;
7813;SDS011;3952;48.364;16.022;2023-07-13T07:35:52;2.27;;;2.07;;
7813;SDS011;3952;48.364;16.022;2023-07-13T07:38:19;2.03;;;1.70;;
7813;SDS011;3952;48.364;16.022;2023-07-13T07:40:46;1.97;;;1.87;;
7813;SDS011;3952;48.364;16.022;2023-07-13T07:43:15;2.50;;;2.00;;
7813;SDS011;3952;48.364;16.022;2023-07-13T07:45:43;1.90;;;1.80;;
7813;SDS011;3952;48.364;16.022;2023-07-13T07:48:11;2.33;;;2.13;;
7813;SDS011;3952;48.364;16.022;2023-07-13T07:50:38;2.10;;;2.00;;
7813;SDS011;3952;48.364;16.022;2023-07-13T07:53:06;2.13;;;1.93;;
7813;SDS011;3952;48.364;16.022;2023-07-13T07:55:35;2.37;;;2.20;;
7813;SDS011;3952;48.364;16.022;2023-07-13T07:58:03;2.33;;;2.13;;
7813;SDS011;3952;48.364;16.022;2023-07-13T08:00:32;1.83;;;1.73;;
7813;SDS011;3952;48.364;16.022;2023-07-13T08:03:00;2.13;;;1.70;;
7813;SDS011;3952;48.364;16.022;2023-07-13T08:05:28;1.87;;;1.80;;
7813;SDS011;3952;48.364;16.022;2023-07-13T08:07:55;1.83;;;1.73;;
7813;SDS011;3952;48.364;16.022;2023-07-13T08:10:22;1.70;;;1.60;;
7813;SDS011;3952;48.364;16.022;2023-07-13T08:12:49;2.17;;;1.77;;
7813;SDS011;3952;48.364;16.022;2023-07-13T08:15:17;2.10;;;2.00;;
7813;SDS011;3952;48.364;16.022;2023-07-13T08:17:47;2.33;;;2.10;;
7813;SDS011;3952;48.364;16.022;2023-07-13T08:20:15;2.53;;;2.27;;
7813;SDS011;3952;48.364;16.022;2023-07-13T08:22:42;2.37;;;2.27;;
7813;SDS011;3952;48.364;16.022;2023-07-13T08:25:09;4.00;;;2.60;;
7813;SDS011;3952;48.364;16.022;2023-07-13T08:27:37;2.40;;;2.30;;
7813;SDS011;3952;48.364;16.022;2023-07-13T08:30:05;3.25;;;2.42;;
7813;SDS011;3952;48.364;16.022;2023-07-13T08:32:33;2.10;;;2.00;;
7813;SDS011;3952;48.364;16.022;2023-07-13T08:35:02;2.00;;;1.90;;
7813;SDS011;3952;48.364;16.022;2023-07-13T08:37:29;1.95;;;1.90;;
7813;SDS011;3952;48.364;16.022;2023-07-13T08:39:57;2.50;;;2.40;;
7813;SDS011;3952;48.364;16.022;2023-07-13T08:42:28;2.25;;;2.15;;
7813;SDS011;3952;48.364;16.022;2023-07-13T08:45:07;3.72;;;2.30;;
7813;SDS011;3952;48.364;16.022;2023-07-13T08:47:39;2.30;;;2.20;;
7813;SDS011;3952;48.364;16.022;2023-07-13T08:50:14;2.22;;;2.13;;
7813;SDS011;3952;48.364;16.022;2023-07-13T08:52:44;2.55;;;2.45;;
7813;SDS011;3952;48.364;16.022;2023-07-13T08:55:13;2.72;;;2.53;;
7813;SDS011;3952;48.364;16.022;2023-07-13T08:57:44;3.47;;;2.92;;
7813;SDS011;3952;48.364;16.022;2023-07-13T09:00:16;2.60;;;2.40;;
7813;SDS011;3952;48.364;16.022;2023-07-13T09:02:45;3.08;;;2.78;;
7813;SDS011;3952;48.364;16.022;2023-07-13T09:05:22;2.90;;;2.70;;
7813;SDS011;3952;48.364;16.022;2023-07-13T09:08:02;3.20;;;2.95;;
7813;SDS011;3952;48.364;16.022;2023-07-13T09:10:41;3.20;;;3.00;;
7813;SDS011;3952;48.364;16.022;2023-07-13T09:13:18;3.85;;;3.55;;
7813;SDS011;3952;48.364;16.022;2023-07-13T09:15:53;4.07;;;3.85;;
7813;SDS011;3952;48.364;16.022;2023-07-13T09:18:22;4.50;;;4.10;;
7813;SDS011;3952;48.364;16.022;2023-07-13T09:20:55;4.30;;;4.10;;
7813;SDS011;3952;48.364;16.022;2023-07-13T09:23:27;4.75;;;4.35;;
7813;SDS011;3952;48.364;16.022;2023-07-13T09:26:00;4.68;;;4.38;;
7813;SDS011;3952;48.364;16.022;2023-07-13T09:28:34;5.45;;;4.95;;
7813;SDS011;3952;48.364;16.022;2023-07-13T09:31:06;4.45;;;4.18;;
7813;SDS011;3952;48.364;16.022;2023-07-13T09:33:35;5.10;;;4.80;;
7813;SDS011;3952;48.364;16.022;2023-07-13T09:36:05;5.03;;;4.72;;
7813;SDS011;3952;48.364;16.022;2023-07-13T09:38:44;4.60;;;4.40;;
7813;SDS011;3952;48.364;16.022;2023-07-13T09:41:15;4.80;;;4.40;;
7813;SDS011;3952;48.364;16.022;2023-07-13T09:46:46;5.05;;;4.60;;
7813;SDS011;3952;48.364;16.022;2023-07-13T09:49:23;4.25;;;4.05;;
7813;SDS011;3952;48.364;16.022;2023-07-13T09:51:56;4.68;;;4.32;;
7813;SDS011;3952;48.364;16.022;2023-07-13T09:54:26;4.22;;;4.00;;
7813;SDS011;3952;48.364;16.022;2023-07-13T09:56:54;4.45;;;4.10;;
7813;SDS011;3952;48.364;16.022;2023-07-13T09:59:23;4.18;;;3.85;;
7813;SDS011;3952;48.364;16.022;2023-07-13T10:01:53;4.20;;;3.90;;
7813;SDS011;3952;48.364;16.022;2023-07-13T10:04:27;4.25;;;3.92;;
7813;SDS011;3952;48.364;16.022;2023-07-13T10:07:05;4.10;;;3.80;;
7813;SDS011;3952;48.364;16.022;2023-07-13T10:09:34;3.78;;;3.47;;
7813;SDS011;3952;48.364;16.022;2023-07-13T10:12:01;4.00;;;3.80;;
7813;SDS011;3952;48.364;16.022;2023-07-13T10:14:29;3.47;;;3.28;;
7813;SDS011;3952;48.364;16.022;2023-07-13T10:16:58;3.42;;;3.22;;
7813;SDS011;3952;48.364;16.022;2023-07-13T10:19:29;5.03;;;3.67;;
7813;SDS011;3952;48.364;16.022;2023-07-13T10:21:59;3.95;;;3.65;;
7813;SDS011;3952;48.364;16.022;2023-07-13T10:24:31;4.88;;;3.92;;
7813;SDS011;3952;48.364;16.022;2023-07-13T10:27:03;4.32;;;3.38;;
7813;SDS011;3952;48.364;16.022;2023-07-13T10:29:40;4.80;;;3.60;;
7813;SDS011;3952;48.364;16.022;2023-07-13T10:32:12;3.90;;;3.70;;
7813;SDS011;3952;48.364;16.022;2023-07-13T10:34:39;4.18;;;3.78;;
7813;SDS011;3952;48.364;16.022;2023-07-13T10:37:13;6.47;;;3.83;;
7813;SDS011;3952;48.364;16.022;2023-07-13T10:39:47;3.92;;;3.58;;
7813;SDS011;3952;48.364;16.022;2023-07-13T10:42:25;5.88;;;3.90;;
7813;SDS011;3952;48.364;16.022;2023-07-13T10:44:55;3.88;;;3.67;;
7813;SDS011;3952;48.364;16.022;2023-07-13T10:47:22;3.30;;;3.17;;
7813;SDS011;3952;48.364;16.022;2023-07-13T10:49:54;3.83;;;3.63;;
7813;SDS011;3952;48.364;16.022;2023-07-13T10:52:43;3.55;;;3.28;;
7813;SDS011;3952;48.364;16.022;2023-07-13T10:58:02;3.80;;;3.60;;
7813;SDS011;3952;48.364;16.022;2023-07-13T11:00:43;3.67;;;3.47;;
7813;SDS011;3952;48.364;16.022;2023-07-13T11:03:15;3.70;;;3.50;;
7813;SDS011;3952;48.364;16.022;2023-07-13T11:05:47;9.68;;;3.42;;
7813;SDS011;3952;48.364;16.022;2023-07-13T11:08:18;3.72;;;3.47;;
7813;SDS011;3952;48.364;16.022;2023-07-13T11:10:53;3.35;;;3.20;;
7813;SDS011;3952;48.364;16.022;2023-07-13T11:16:43;3.30;;;3.10;;
7813;SDS011;3952;48.364;16.022;2023-07-13T11:22:13;2.95;;;2.78;;
7813;SDS011;3952;48.364;16.022;2023-07-13T11:24:54;3.40;;;3.20;;
7813;SDS011;3952;48.364;16.022;2023-07-13T11:27:36;3.28;;;2.97;;
7813;SDS011;3952;48.364;16.022;2023-07-13T11:30:21;5.72;;;3.00;;
7813;SDS011;3952;48.364;16.022;2023-07-13T11:32:51;3.10;;;2.90;;
7813;SDS011;3952;48.364;16.022;2023-07-13T11:35:33;4.90;;;2.85;;
7813;SDS011;3952;48.364;16.022;2023-07-13T11:38:08;3.25;;;2.92;;
7813;SDS011;3952;48.364;16.022;2023-07-13T11:40:41;2.70;;;2.60;;
7813;SDS011;3952;48.364;16.022;2023-07-13T11:43:14;3.13;;;3.00;;
7813;SDS011;3952;48.364;16.022;2023-07-13T11:45:42;3.00;;;2.80;;
7813;SDS011;3952;48.364;16.022;2023-07-13T11:48:20;3.08;;;2.90;;
7813;SDS011;3952;48.364;16.022;2023-07-13T11:50:50;3.30;;;3.10;;
7813;SDS011;3952;48.364;16.022;2023-07-13T11:53:21;4.55;;;3.15;;
7813;SDS011;3952;48.364;16.022;2023-07-13T11:55:52;3.58;;;3.00;;
7813;SDS011;3952;48.364;16.022;2023-07-13T11:58:21;3.25;;;3.08;;
7813;SDS011;3952;48.364;16.022;2023-07-13T12:00:50;3.58;;;3.30;;
7813;SDS011;3952;48.364;16.022;2023-07-13T12:03:20;2.92;;;2.72;;
7813;SDS011;3952;48.364;16.022;2023-07-13T12:05:56;2.95;;;2.70;;
7813;SDS011;3952;48.364;16.022;2023-07-13T12:08:26;5.18;;;2.78;;
7813;SDS011;3952;48.364;16.022;2023-07-13T12:10:57;2.80;;;2.60;;
7813;SDS011;3952;48.364;16.022;2023-07-13T12:13:36;5.13;;;2.67;;
7813;SDS011;3952;48.364;16.022;2023-07-13T12:16:11;3.17;;;2.67;;
7813;SDS011;3952;48.364;16.022;2023-07-13T12:18:42;2.95;;;2.75;;
7813;SDS011;3952;48.364;16.022;2023-07-13T12:21:14;3.70;;;2.80;;
7813;SDS011;3952;48.364;16.022;2023-07-13T12:23:44;2.70;;;2.50;;
7813;SDS011;3952;48.364;16.022;2023-07-13T12:26:15;3.72;;;3.10;;
7813;SDS011;3952;48.364;16.022;2023-07-13T12:28:46;4.43;;;2.67;;
7813;SDS011;3952;48.364;16.022;2023-07-13T12:31:22;2.90;;;2.70;;
7813;SDS011;3952;48.364;16.022;2023-07-13T12:33:56;2.92;;;2.70;;
7813;SDS011;3952;48.364;16.022;2023-07-13T12:36:24;2.88;;;2.67;;
7813;SDS011;3952;48.364;16.022;2023-07-13T12:38:52;3.17;;;2.83;;
7813;SDS011;3952;48.364;16.022;2023-07-13T12:41:19;3.67;;;2.60;;
7813;SDS011;3952;48.364;16.022;2023-07-13T12:43:49;2.63;;;2.42;;
7813;SDS011;3952;48.364;16.022;2023-07-13T12:46:19;2.58;;;2.42;;
7813;SDS011;3952;48.364;16.022;2023-07-13T12:48:48;2.50;;;2.28;;
7813;SDS011;3952;48.364;16.022;2023-07-13T12:51:16;3.08;;;2.53;;
7813;SDS011;3952;48.364;16.022;2023-07-13T12:53:47;2.78;;;2.65;;
7813;SDS011;3952;48.364;16.022;2023-07-13T12:56:20;2.85;;;2.65;;
7813;SDS011;3952;48.364;16.022;2023-07-13T12:58:54;2.53;;;2.33;;
7813;SDS011;3952;48.364;16.022;2023-07-13T13:01:25;2.72;;;2.60;;
7813;SDS011;3952;48.364;16.022;2023-07-13T13:03:54;4.43;;;2.45;;
7813;SDS011;3952;48.364;16.022;2023-07-13T13:06:23;2.47;;;2.38;;
7813;SDS011;3952;48.364;16.022;2023-07-13T13:08:53;2.70;;;2.60;;
7813;SDS011;3952;48.364;16.022;2023-07-13T13:11:22;4.20;;;2.50;;
7813;SDS011;3952;48.364;16.022;2023-07-13T13:13:52;3.13;;;2.42;;
7813;SDS011;3952;48.364;16.022;2023-07-13T13:16:21;2.58;;;2.38;;
7813;SDS011;3952;48.364;16.022;2023-07-13T13:18:50;3.78;;;2.58;;
7813;SDS011;3952;48.364;16.022;2023-07-13T13:21:22;2.38;;;2.28;;
7813;SDS011;3952;48.364;16.022;2023-07-13T13:23:51;2.50;;;2.30;;
7813;SDS011;3952;48.364;16.022;2023-07-13T13:26:19;3.00;;;2.67;;
7813;SDS011;3952;48.364;16.022;2023-07-13T13:28:47;2.63;;;2.40;;
7813;SDS011;3952;48.364;16.022;2023-07-13T13:31:17;3.92;;;2.60;;
7813;SDS011;3952;48.364;16.022;2023-07-13T13:33:44;2.88;;;2.60;;
7813;SDS011;3952;48.364;16.022;2023-07-13T13:36:17;2.35;;;2.25;;
7813;SDS011;3952;48.364;16.022;2023-07-13T13:38:48;2.67;;;2.30;;
7813;SDS011;3952;48.364;16.022;2023-07-13T13:41:16;2.80;;;2.47;;
7813;SDS011;3952;48.364;16.022;2023-07-13T13:43:43;4.10;;;2.70;;
7813;SDS011;3952;48.364;16.022;2023-07-13T13:46:13;3.05;;;2.60;;
7813;SDS011;3952;48.364;16.022;2023-07-13T13:48:44;2.47;;;2.30;;
7813;SDS011;3952;48.364;16.022;2023-07-13T13:51:13;2.67;;;2.47;;
7813;SDS011;3952;48.364;16.022;2023-07-13T13:53:41;2.70;;;2.60;;
7813;SDS011;3952;48.364;16.022;2023-07-13T13:56:09;2.60;;;2.50;;
7813;SDS011;3952;48.364;16.022;2023-07-13T13:58:36;3.35;;;2.28;;
7813;SDS011;3952;48.364;16.022;2023-07-13T14:01:03;2.70;;;2.50;;
7813;SDS011;3952;48.364;16.022;2023-07-13T14:03:33;2.67;;;2.58;;
7813;SDS011;3952;48.364;16.022;2023-07-13T14:06:02;2.42;;;2.33;;
7813;SDS011;3952;48.364;16.022;2023-07-13T14:08:29;2.80;;;2.60;;
7813;SDS011;3952;48.364;16.022;2023-07-13T14:10:56;2.75;;;2.65;;
7813;SDS011;3952;48.364;16.022;2023-07-13T14:13:26;2.80;;;2.60;;
7813;SDS011;3952;48.364;16.022;2023-07-13T14:15:54;2.33;;;2.20;;
7813;SDS011;3952;48.364;16.022;2023-07-13T14:18:22;5.63;;;2.63;;
7813;SDS011;3952;48.364;16.022;2023-07-13T14:20:49;4.95;;;2.78;;
7813;SDS011;3952;48.364;16.022;2023-07-13T14:23:18;2.90;;;2.70;;
7813;SDS011;3952;48.364;16.022;2023-07-13T14:25:46;2.88;;;2.67;;
7813;SDS011;3952;48.364;16.022;2023-07-13T14:28:17;2.42;;;2.33;;
7813;SDS011;3952;48.364;16.022;2023-07-13T14:30:48;3.60;;;2.40;;
7813;SDS011;3952;48.364;16.022;2023-07-13T14:33:16;4.18;;;2.72;;
7813;SDS011;3952;48.364;16.022;2023-07-13T14:35:43;4.15;;;2.80;;
7813;SDS011;3952;48.364;16.022;2023-07-13T14:38:12;2.58;;;2.38;;
7813;SDS011;3952;48.364;16.022;2023-07-13T14:40:43;3.65;;;2.83;;
7813;SDS011;3952;48.364;16.022;2023-07-13T14:43:10;2.58;;;2.38;;
7813;SDS011;3952;48.364;16.022;2023-07-13T14:45:39;6.65;;;3.08;;
7813;SDS011;3952;48.364;16.022;2023-07-13T14:48:14;2.70;;;2.60;;
7813;SDS011;3952;48.364;16.022;2023-07-13T14:50:44;2.55;;;2.40;;
7813;SDS011;3952;48.364;16.022;2023-07-13T14:53:11;3.38;;;2.20;;
7813;SDS011;3952;48.364;16.022;2023-07-13T14:55:39;6.68;;;2.50;;
7813;SDS011;3952;48.364;16.022;2023-07-13T14:58:09;2.60;;;2.50;;
7813;SDS011;3952;48.364;16.022;2023-07-13T15:00:36;3.63;;;2.60;;
7813;SDS011;3952;48.364;16.022;2023-07-13T15:03:03;3.05;;;2.85;;
7813;SDS011;3952;48.364;16.022;2023-07-13T15:05:32;2.95;;;2.30;;
7813;SDS011;3952;48.364;16.022;2023-07-13T15:08:00;3.33;;;2.42;;
7813;SDS011;3952;48.364;16.022;2023-07-13T15:10:29;3.00;;;2.70;;
7813;SDS011;3952;48.364;16.022;2023-07-13T15:12:58;2.33;;;2.15;;
7813;SDS011;3952;48.364;16.022;2023-07-13T15:15:31;2.47;;;2.30;;
7813;SDS011;3952;48.364;16.022;2023-07-13T15:18:01;3.42;;;2.58;;
7813;SDS011;3952;48.364;16.022;2023-07-13T15:20:29;3.75;;;2.60;;
7813;SDS011;3952;48.364;16.022;2023-07-13T15:23:00;2.72;;;2.53;;
7813;SDS011;3952;48.364;16.022;2023-07-13T15:25:29;2.63;;;2.53;;
7813;SDS011;3952;48.364;16.022;2023-07-13T15:27:58;2.80;;;2.70;;